sensor_id;sensor_type;location;lat;lon;timestamp;P1;durP1;ratioP1;P2;durP2;ratioP2
19951;SDS011;10137;49.406;19.484;2023-03-26T00:01:05;3.30;;;1.50;;
19951;SDS011;10137;49.406;19.484;2023-03-26T00:03:34;2.83;;;1.67;;
19951;SDS011;10137;49.406;19.484;2023-03-26T00:06:05;3.17;;;1.80;;
19951;SDS011;10137;49.406;19.484;2023-03-26T00:08:36;3.27;;;1.67;;
19951;SDS011;10137;49.406;19.484;2023-03-26T00:11:06;2.97;;;1.63;;
19951;SDS011;10137;49.406;19.484;2023-03-26T00:13:36;2.40;;;1.50;;
19951;SDS011;10137;49.406;19.484;2023-03-26T00:16:08;4.03;;;1.77;;
19951;SDS011;10137;49.406;19.484;2023-03-26T00:18:37;2.23;;;1.93;;
19951;SDS011;10137;49.406;19.484;2023-03-26T00:21:05;2.80;;;1.50;;
19951;SDS011;10137;49.406;19.484;2023-03-26T00:23:35;2.13;;;1.57;;
19951;SDS011;10137;49.406;19.484;2023-03-26T00:26:04;4.20;;;1.70;;
19951;SDS011;10137;49.406;19.484;2023-03-26T00:28:36;2.67;;;1.70;;
19951;SDS011;10137;49.406;19.484;2023-03-26T00:31:06;3.00;;;1.23;;
19951;SDS011;10137;49.406;19.484;2023-03-26T00:33:38;3.93;;;1.27;;
19951;SDS011;10137;49.406;19.484;2023-03-26T00:36:08;2.83;;;1.47;;
19951;SDS011;10137;49.406;19.484;2023-03-26T00:38:39;2.30;;;1.60;;
19951;SDS011;10137;49.406;19.484;2023-03-26T00:41:09;1.43;;;1.10;;
19951;SDS011;10137;49.406;19.484;2023-03-26T00:43:48;3.87;;;1.43;;
19951;SDS011;10137;49.406;19.484;2023-03-26T00:46:18;2.50;;;1.47;;
19951;SDS011;10137;49.406;19.484;2023-03-26T00:48:46;3.13;;;1.60;;
19951;SDS011;10137;49.406;19.484;2023-03-26T00:51:17;5.30;;;1.63;;
19951;SDS011;10137;49.406;19.484;2023-03-26T00:53:46;2.53;;;1.60;;
19951;SDS011;10137;49.406;19.484;2023-03-26T00:56:16;3.97;;;2.10;;
19951;SDS011;10137;49.406;19.484;2023-03-26T00:58:44;2.53;;;1.40;;
19951;SDS011;10137;49.406;19.484;2023-03-26T01:01:16;1.80;;;1.30;;
19951;SDS011;10137;49.406;19.484;2023-03-26T01:03:53;1.57;;;1.10;;
19951;SDS011;10137;49.406;19.484;2023-03-26T01:06:25;3.43;;;1.87;;
19951;SDS011;10137;49.406;19.484;2023-03-26T01:09:00;3.40;;;1.70;;
19951;SDS011;10137;49.406;19.484;2023-03-26T01:11:31;3.27;;;1.27;;
19951;SDS011;10137;49.406;19.484;2023-03-26T01:14:01;4.63;;;1.80;;
19951;SDS011;10137;49.406;19.484;2023-03-26T01:16:35;2.57;;;1.70;;
19951;SDS011;10137;49.406;19.484;2023-03-26T01:19:07;1.30;;;1.20;;
19951;SDS011;10137;49.406;19.484;2023-03-26T01:21:41;4.67;;;1.67;;
19951;SDS011;10137;49.406;19.484;2023-03-26T01:24:11;3.17;;;1.47;;
19951;SDS011;10137;49.406;19.484;2023-03-26T01:26:48;1.80;;;1.30;;
19951;SDS011;10137;49.406;19.484;2023-03-26T01:29:26;1.73;;;1.30;;
19951;SDS011;10137;49.406;19.484;2023-03-26T01:32:02;3.77;;;1.40;;
19951;SDS011;10137;49.406;19.484;2023-03-26T01:34:45;2.47;;;1.40;;
19951;SDS011;10137;49.406;19.484;2023-03-26T01:37:23;2.47;;;1.50;;
19951;SDS011;10137;49.406;19.484;2023-03-26T01:40:00;2.80;;;1.50;;
19951;SDS011;10137;49.406;19.484;2023-03-26T01:42:33;1.90;;;1.60;;
19951;SDS011;10137;49.406;19.484;2023-03-26T01:45:06;3.20;;;1.50;;
19951;SDS011;10137;49.406;19.484;2023-03-26T01:47:39;1.97;;;1.37;;
19951;SDS011;10137;49.406;19.484;2023-03-26T01:50:10;2.63;;;1.60;;
19951;SDS011;10137;49.406;19.484;2023-03-26T01:52:38;4.17;;;1.90;;
19951;SDS011;10137;49.406;19.484;2023-03-26T01:55:08;2.10;;;1.43;;
19951;SDS011;10137;49.406;19.484;2023-03-26T01:57:42;4.20;;;1.40;;
19951;SDS011;10137;49.406;19.484;2023-03-26T02:00:19;2.50;;;1.50;;
19951;SDS011;10137;49.406;19.484;2023-03-26T02:05:49;2.20;;;1.30;;
19951;SDS011;10137;49.406;19.484;2023-03-26T02:08:22;1.70;;;1.40;;
19951;SDS011;10137;49.406;19.484;2023-03-26T02:10:58;2.93;;;1.80;;
19951;SDS011;10137;49.406;19.484;2023-03-26T02:13:29;5.53;;;3.90;;
19951;SDS011;10137;49.406;19.484;2023-03-26T02:15:59;3.53;;;1.90;;
19951;SDS011;10137;49.406;19.484;2023-03-26T02:18:28;3.23;;;1.80;;
19951;SDS011;10137;49.406;19.484;2023-03-26T02:21:03;2.70;;;1.70;;
19951;SDS011;10137;49.406;19.484;2023-03-26T02:23:35;1.70;;;1.33;;
19951;SDS011;10137;49.406;19.484;2023-03-26T02:26:05;2.10;;;1.30;;
19951;SDS011;10137;49.406;19.484;2023-03-26T02:28:35;2.73;;;1.70;;
19951;SDS011;10137;49.406;19.484;2023-03-26T02:31:05;2.10;;;1.60;;
19951;SDS011;10137;49.406;19.484;2023-03-26T02:33:34;5.37;;;2.10;;
19951;SDS011;10137;49.406;19.484;2023-03-26T02:36:03;3.37;;;2.10;;
19951;SDS011;10137;49.406;19.484;2023-03-26T02:38:34;4.07;;;2.00;;
19951;SDS011;10137;49.406;19.484;2023-03-26T02:41:02;2.53;;;1.53;;
19951;SDS011;10137;49.406;19.484;2023-03-26T02:43:32;3.57;;;1.90;;
19951;SDS011;10137;49.406;19.484;2023-03-26T02:46:00;3.10;;;1.90;;
19951;SDS011;10137;49.406;19.484;2023-03-26T02:48:28;2.57;;;1.60;;
19951;SDS011;10137;49.406;19.484;2023-03-26T02:50:59;3.03;;;1.50;;
19951;SDS011;10137;49.406;19.484;2023-03-26T02:53:27;3.27;;;1.60;;
19951;SDS011;10137;49.406;19.484;2023-03-26T02:55:56;2.80;;;1.70;;
19951;SDS011;10137;49.406;19.484;2023-03-26T02:58:25;3.90;;;2.00;;
19951;SDS011;10137;49.406;19.484;2023-03-26T03:00:56;2.63;;;1.50;;
19951;SDS011;10137;49.406;19.484;2023-03-26T03:03:25;3.73;;;1.70;;
19951;SDS011;10137;49.406;19.484;2023-03-26T03:05:53;3.40;;;1.53;;
19951;SDS011;10137;49.406;19.484;2023-03-26T03:08:23;3.00;;;1.90;;
19951;SDS011;10137;49.406;19.484;2023-03-26T03:10:57;2.33;;;1.60;;
19951;SDS011;10137;49.406;19.484;2023-03-26T03:13:26;3.13;;;1.47;;
19951;SDS011;10137;49.406;19.484;2023-03-26T03:15:56;4.07;;;1.50;;
19951;SDS011;10137;49.406;19.484;2023-03-26T03:18:24;2.53;;;1.20;;
19951;SDS011;10137;49.406;19.484;2023-03-26T03:20:53;3.90;;;1.50;;
19951;SDS011;10137;49.406;19.484;2023-03-26T03:23:21;3.83;;;2.47;;
19951;SDS011;10137;49.406;19.484;2023-03-26T03:25:49;3.23;;;2.13;;
19951;SDS011;10137;49.406;19.484;2023-03-26T03:28:17;5.67;;;2.50;;
19951;SDS011;10137;49.406;19.484;2023-03-26T03:30:45;4.27;;;2.50;;
19951;SDS011;10137;49.406;19.484;2023-03-26T03:33:15;4.07;;;2.63;;
19951;SDS011;10137;49.406;19.484;2023-03-26T03:35:45;5.13;;;2.90;;
19951;SDS011;10137;49.406;19.484;2023-03-26T03:38:14;5.83;;;2.63;;
19951;SDS011;10137;49.406;19.484;2023-03-26T03:40:43;2.93;;;1.93;;
19951;SDS011;10137;49.406;19.484;2023-03-26T03:43:11;3.03;;;2.03;;
19951;SDS011;10137;49.406;19.484;2023-03-26T03:45:40;3.27;;;1.83;;
19951;SDS011;10137;49.406;19.484;2023-03-26T03:48:08;3.60;;;1.80;;
19951;SDS011;10137;49.406;19.484;2023-03-26T03:50:37;2.93;;;1.70;;
19951;SDS011;10137;49.406;19.484;2023-03-26T03:53:06;4.27;;;2.03;;
19951;SDS011;10137;49.406;19.484;2023-03-26T03:55:34;3.47;;;1.73;;
19951;SDS011;10137;49.406;19.484;2023-03-26T03:58:03;3.67;;;1.80;;
19951;SDS011;10137;49.406;19.484;2023-03-26T04:00:34;6.17;;;3.57;;
19951;SDS011;10137;49.406;19.484;2023-03-26T04:03:03;7.97;;;3.97;;
19951;SDS011;10137;49.406;19.484;2023-03-26T04:05:32;7.10;;;3.20;;
19951;SDS011;10137;49.406;19.484;2023-03-26T04:08:03;4.37;;;2.70;;
19951;SDS011;10137;49.406;19.484;2023-03-26T04:10:31;4.53;;;2.20;;
19951;SDS011;10137;49.406;19.484;2023-03-26T04:12:59;3.43;;;1.80;;
19951;SDS011;10137;49.406;19.484;2023-03-26T04:15:28;4.83;;;1.90;;
19951;SDS011;10137;49.406;19.484;2023-03-26T04:17:56;4.43;;;1.80;;
19951;SDS011;10137;49.406;19.484;2023-03-26T04:20:24;2.63;;;1.60;;
19951;SDS011;10137;49.406;19.484;2023-03-26T04:22:52;3.17;;;1.60;;
19951;SDS011;10137;49.406;19.484;2023-03-26T04:25:23;2.37;;;1.60;;
19951;SDS011;10137;49.406;19.484;2023-03-26T04:27:55;4.83;;;1.40;;
19951;SDS011;10137;49.406;19.484;2023-03-26T04:30:26;4.47;;;1.67;;
19951;SDS011;10137;49.406;19.484;2023-03-26T04:32:55;4.57;;;1.97;;
19951;SDS011;10137;49.406;19.484;2023-03-26T04:35:23;2.00;;;1.40;;
19951;SDS011;10137;49.406;19.484;2023-03-26T04:37:51;3.73;;;1.40;;
19951;SDS011;10137;49.406;19.484;2023-03-26T04:40:20;2.93;;;1.40;;
19951;SDS011;10137;49.406;19.484;2023-03-26T04:42:50;1.77;;;1.40;;
19951;SDS011;10137;49.406;19.484;2023-03-26T04:45:23;2.47;;;1.63;;
19951;SDS011;10137;49.406;19.484;2023-03-26T04:47:51;4.43;;;2.00;;
19951;SDS011;10137;49.406;19.484;2023-03-26T04:50:20;3.30;;;1.50;;
19951;SDS011;10137;49.406;19.484;2023-03-26T04:52:48;4.07;;;1.80;;
19951;SDS011;10137;49.406;19.484;2023-03-26T04:55:18;2.37;;;1.40;;
19951;SDS011;10137;49.406;19.484;2023-03-26T04:57:53;4.90;;;1.80;;
19951;SDS011;10137;49.406;19.484;2023-03-26T05:00:25;3.10;;;1.67;;
19951;SDS011;10137;49.406;19.484;2023-03-26T05:02:54;6.07;;;1.70;;
19951;SDS011;10137;49.406;19.484;2023-03-26T05:05:23;2.40;;;1.40;;
19951;SDS011;10137;49.406;19.484;2023-03-26T05:07:52;4.97;;;1.77;;
19951;SDS011;10137;49.406;19.484;2023-03-26T05:10:20;2.67;;;1.47;;
19951;SDS011;10137;49.406;19.484;2023-03-26T05:12:48;2.60;;;1.53;;
19951;SDS011;10137;49.406;19.484;2023-03-26T05:15:21;2.67;;;1.80;;
19951;SDS011;10137;49.406;19.484;2023-03-26T05:17:49;4.67;;;1.40;;
19951;SDS011;10137;49.406;19.484;2023-03-26T05:20:18;2.13;;;1.50;;
19951;SDS011;10137;49.406;19.484;2023-03-26T05:22:47;2.37;;;1.37;;
19951;SDS011;10137;49.406;19.484;2023-03-26T05:25:17;3.10;;;1.70;;
19951;SDS011;10137;49.406;19.484;2023-03-26T05:27:45;5.40;;;2.00;;
19951;SDS011;10137;49.406;19.484;2023-03-26T05:30:14;2.00;;;1.50;;
19951;SDS011;10137;49.406;19.484;2023-03-26T05:32:46;1.70;;;1.20;;
19951;SDS011;10137;49.406;19.484;2023-03-26T05:35:15;2.60;;;1.20;;
19951;SDS011;10137;49.406;19.484;2023-03-26T05:37:44;6.00;;;1.40;;
19951;SDS011;10137;49.406;19.484;2023-03-26T05:40:13;2.57;;;1.50;;
19951;SDS011;10137;49.406;19.484;2023-03-26T05:42:42;2.50;;;1.23;;
19951;SDS011;10137;49.406;19.484;2023-03-26T05:45:12;2.97;;;1.30;;
19951;SDS011;10137;49.406;19.484;2023-03-26T05:47:41;2.13;;;1.53;;
19951;SDS011;10137;49.406;19.484;2023-03-26T05:50:11;4.40;;;1.50;;
19951;SDS011;10137;49.406;19.484;2023-03-26T05:52:39;4.00;;;2.10;;
19951;SDS011;10137;49.406;19.484;2023-03-26T05:55:08;4.40;;;1.87;;
19951;SDS011;10137;49.406;19.484;2023-03-26T05:57:36;2.03;;;1.60;;
19951;SDS011;10137;49.406;19.484;2023-03-26T06:00:05;3.07;;;1.63;;
19951;SDS011;10137;49.406;19.484;2023-03-26T06:02:36;1.90;;;1.70;;
19951;SDS011;10137;49.406;19.484;2023-03-26T06:05:04;7.03;;;2.20;;
19951;SDS011;10137;49.406;19.484;2023-03-26T06:07:36;5.53;;;2.00;;
19951;SDS011;10137;49.406;19.484;2023-03-26T06:10:05;2.27;;;1.50;;
19951;SDS011;10137;49.406;19.484;2023-03-26T06:12:34;3.27;;;1.40;;
19951;SDS011;10137;49.406;19.484;2023-03-26T06:15:03;2.63;;;1.60;;
19951;SDS011;10137;49.406;19.484;2023-03-26T06:17:32;2.20;;;1.47;;
19951;SDS011;10137;49.406;19.484;2023-03-26T06:20:00;3.20;;;1.30;;
19951;SDS011;10137;49.406;19.484;2023-03-26T06:22:31;2.33;;;1.47;;
19951;SDS011;10137;49.406;19.484;2023-03-26T06:25:00;3.00;;;1.70;;
19951;SDS011;10137;49.406;19.484;2023-03-26T06:27:29;3.30;;;1.80;;
19951;SDS011;10137;49.406;19.484;2023-03-26T06:29:57;3.63;;;1.43;;
19951;SDS011;10137;49.406;19.484;2023-03-26T06:32:25;3.43;;;1.60;;
19951;SDS011;10137;49.406;19.484;2023-03-26T06:34:53;2.47;;;1.50;;
19951;SDS011;10137;49.406;19.484;2023-03-26T06:37:21;3.27;;;1.50;;
19951;SDS011;10137;49.406;19.484;2023-03-26T06:39:49;2.07;;;1.50;;
19951;SDS011;10137;49.406;19.484;2023-03-26T06:42:19;2.97;;;1.37;;
19951;SDS011;10137;49.406;19.484;2023-03-26T06:44:47;2.80;;;1.10;;
19951;SDS011;10137;49.406;19.484;2023-03-26T06:47:15;2.80;;;1.20;;
19951;SDS011;10137;49.406;19.484;2023-03-26T06:49:43;2.50;;;1.20;;
19951;SDS011;10137;49.406;19.484;2023-03-26T06:52:12;2.67;;;1.30;;
19951;SDS011;10137;49.406;19.484;2023-03-26T06:54:40;2.60;;;1.33;;
19951;SDS011;10137;49.406;19.484;2023-03-26T06:57:08;4.03;;;1.30;;
19951;SDS011;10137;49.406;19.484;2023-03-26T06:59:37;2.90;;;1.50;;
19951;SDS011;10137;49.406;19.484;2023-03-26T07:02:06;3.57;;;1.80;;
19951;SDS011;10137;49.406;19.484;2023-03-26T07:04:35;3.27;;;1.73;;
19951;SDS011;10137;49.406;19.484;2023-03-26T07:07:04;5.83;;;2.20;;
19951;SDS011;10137;49.406;19.484;2023-03-26T07:09:32;6.53;;;2.00;;
19951;SDS011;10137;49.406;19.484;2023-03-26T07:12:00;3.50;;;2.23;;
19951;SDS011;10137;49.406;19.484;2023-03-26T07:14:28;3.57;;;1.67;;
19951;SDS011;10137;49.406;19.484;2023-03-26T07:16:59;3.07;;;2.00;;
19951;SDS011;10137;49.406;19.484;2023-03-26T07:19:27;3.93;;;1.77;;
19951;SDS011;10137;49.406;19.484;2023-03-26T07:21:55;5.03;;;2.00;;
19951;SDS011;10137;49.406;19.484;2023-03-26T07:24:24;3.37;;;1.40;;
19951;SDS011;10137;49.406;19.484;2023-03-26T07:26:54;5.67;;;1.73;;
19951;SDS011;10137;49.406;19.484;2023-03-26T07:29:31;4.87;;;1.30;;
19951;SDS011;10137;49.406;19.484;2023-03-26T07:32:06;2.50;;;1.40;;
19951;SDS011;10137;49.406;19.484;2023-03-26T07:34:45;2.30;;;1.20;;
19951;SDS011;10137;49.406;19.484;2023-03-26T07:37:21;2.70;;;1.30;;
19951;SDS011;10137;49.406;19.484;2023-03-26T07:40:08;2.23;;;1.13;;
19951;SDS011;10137;49.406;19.484;2023-03-26T07:42:50;4.87;;;1.57;;
19951;SDS011;10137;49.406;19.484;2023-03-26T07:45:29;4.40;;;1.87;;
19951;SDS011;10137;49.406;19.484;2023-03-26T07:48:08;4.57;;;1.80;;
19951;SDS011;10137;49.406;19.484;2023-03-26T07:50:42;2.67;;;1.67;;
19951;SDS011;10137;49.406;19.484;2023-03-26T07:53:13;2.60;;;1.30;;
19951;SDS011;10137;49.406;19.484;2023-03-26T07:55:44;3.57;;;1.50;;
19951;SDS011;10137;49.406;19.484;2023-03-26T07:58:28;3.13;;;1.70;;
19951;SDS011;10137;49.406;19.484;2023-03-26T08:01:07;2.57;;;1.40;;
19951;SDS011;10137;49.406;19.484;2023-03-26T08:06:38;3.70;;;1.50;;
19951;SDS011;10137;49.406;19.484;2023-03-26T08:09:11;2.60;;;1.70;;
19951;SDS011;10137;49.406;19.484;2023-03-26T08:11:53;5.10;;;2.10;;
19951;SDS011;10137;49.406;19.484;2023-03-26T08:14:31;5.57;;;2.30;;
19951;SDS011;10137;49.406;19.484;2023-03-26T08:17:08;4.37;;;2.13;;
19951;SDS011;10137;49.406;19.484;2023-03-26T08:19:55;4.57;;;1.80;;
19951;SDS011;10137;49.406;19.484;2023-03-26T08:22:32;3.13;;;1.87;;
19951;SDS011;10137;49.406;19.484;2023-03-26T08:28:17;3.37;;;1.20;;
19951;SDS011;10137;49.406;19.484;2023-03-26T08:30:54;5.40;;;2.27;;
19951;SDS011;10137;49.406;19.484;2023-03-26T08:33:24;3.17;;;1.70;;
19951;SDS011;10137;49.406;19.484;2023-03-26T08:35:54;6.37;;;1.70;;
19951;SDS011;10137;49.406;19.484;2023-03-26T08:38:22;2.50;;;1.73;;
19951;SDS011;10137;49.406;19.484;2023-03-26T08:50:29;7.80;;;1.33;;
19951;SDS011;10137;49.406;19.484;2023-03-26T08:56:17;3.17;;;1.50;;
19951;SDS011;10137;49.406;19.484;2023-03-26T08:58:56;2.67;;;1.33;;
19951;SDS011;10137;49.406;19.484;2023-03-26T09:10:51;2.70;;;0.80;;
19951;SDS011;10137;49.406;19.484;2023-03-26T09:16:44;2.50;;;1.10;;
19951;SDS011;10137;49.406;19.484;2023-03-26T09:22:57;3.63;;;1.47;;
19951;SDS011;10137;49.406;19.484;2023-03-26T09:26:05;5.27;;;2.63;;
19951;SDS011;10137;49.406;19.484;2023-03-26T09:35:04;2.03;;;0.83;;
19951;SDS011;10137;49.406;19.484;2023-03-26T09:37:44;2.10;;;1.20;;
19951;SDS011;10137;49.406;19.484;2023-03-26T09:40:23;4.83;;;1.57;;
19951;SDS011;10137;49.406;19.484;2023-03-26T09:43:09;2.73;;;1.43;;
19951;SDS011;10137;49.406;19.484;2023-03-26T09:46:09;1.33;;;1.10;;
19951;SDS011;10137;49.406;19.484;2023-03-26T09:51:48;4.13;;;1.50;;
19951;SDS011;10137;49.406;19.484;2023-03-26T09:54:38;5.77;;;1.10;;
19951;SDS011;10137;49.406;19.484;2023-03-26T09:57:34;5.67;;;1.17;;
19951;SDS011;10137;49.406;19.484;2023-03-26T10:00:19;2.40;;;1.17;;
19951;SDS011;10137;49.406;19.484;2023-03-26T10:06:00;2.83;;;1.17;;
19951;SDS011;10137;49.406;19.484;2023-03-26T10:08:50;4.87;;;0.73;;
19951;SDS011;10137;49.406;19.484;2023-03-26T10:11:31;3.60;;;1.13;;
19951;SDS011;10137;49.406;19.484;2023-03-26T10:14:12;3.50;;;1.30;;
19951;SDS011;10137;49.406;19.484;2023-03-26T10:16:52;3.03;;;1.60;;
19951;SDS011;10137;49.406;19.484;2023-03-26T10:19:32;3.63;;;1.03;;
19951;SDS011;10137;49.406;19.484;2023-03-26T10:22:19;0.83;;;0.80;;
19951;SDS011;10137;49.406;19.484;2023-03-26T10:25:02;2.53;;;1.03;;
19951;SDS011;10137;49.406;19.484;2023-03-26T10:27:43;4.90;;;1.10;;
19951;SDS011;10137;49.406;19.484;2023-03-26T10:30:31;2.07;;;1.20;;
19951;SDS011;10137;49.406;19.484;2023-03-26T10:33:20;3.23;;;1.50;;
19951;SDS011;10137;49.406;19.484;2023-03-26T10:36:01;4.77;;;1.20;;
19951;SDS011;10137;49.406;19.484;2023-03-26T10:38:52;3.37;;;0.97;;
19951;SDS011;10137;49.406;19.484;2023-03-26T10:41:50;7.90;;;1.10;;
19951;SDS011;10137;49.406;19.484;2023-03-26T10:44:33;3.73;;;1.47;;
19951;SDS011;10137;49.406;19.484;2023-03-26T10:50:29;4.47;;;1.67;;
19951;SDS011;10137;49.406;19.484;2023-03-26T10:53:12;1.30;;;0.97;;
19951;SDS011;10137;49.406;19.484;2023-03-26T10:55:50;2.17;;;1.07;;
19951;SDS011;10137;49.406;19.484;2023-03-26T10:58:22;5.30;;;1.00;;
19951;SDS011;10137;49.406;19.484;2023-03-26T11:00:53;0.80;;;0.73;;
19951;SDS011;10137;49.406;19.484;2023-03-26T11:06:25;1.77;;;1.07;;
19951;SDS011;10137;49.406;19.484;2023-03-26T11:09:09;2.03;;;0.80;;
19951;SDS011;10137;49.406;19.484;2023-03-26T11:11:46;1.63;;;0.93;;
19951;SDS011;10137;49.406;19.484;2023-03-26T11:14:21;1.20;;;1.10;;
19951;SDS011;10137;49.406;19.484;2023-03-26T11:16:57;1.80;;;1.10;;
19951;SDS011;10137;49.406;19.484;2023-03-26T11:19:33;4.57;;;1.20;;
19951;SDS011;10137;49.406;19.484;2023-03-26T11:22:10;2.13;;;1.10;;
19951;SDS011;10137;49.406;19.484;2023-03-26T11:27:55;4.53;;;1.40;;
19951;SDS011;10137;49.406;19.484;2023-03-26T11:30:33;4.77;;;2.30;;
19951;SDS011;10137;49.406;19.484;2023-03-26T11:33:09;2.20;;;1.33;;
19951;SDS011;10137;49.406;19.484;2023-03-26T11:35:39;4.93;;;1.93;;
19951;SDS011;10137;49.406;19.484;2023-03-26T11:38:13;3.37;;;1.60;;
19951;SDS011;10137;49.406;19.484;2023-03-26T11:40:46;3.00;;;1.13;;
19951;SDS011;10137;49.406;19.484;2023-03-26T11:43:18;2.87;;;1.13;;
19951;SDS011;10137;49.406;19.484;2023-03-26T11:45:50;2.30;;;1.07;;
19951;SDS011;10137;49.406;19.484;2023-03-26T11:48:21;3.13;;;1.23;;
19951;SDS011;10137;49.406;19.484;2023-03-26T11:50:54;1.70;;;1.20;;
19951;SDS011;10137;49.406;19.484;2023-03-26T11:53:30;2.60;;;1.03;;
19951;SDS011;10137;49.406;19.484;2023-03-26T11:56:00;4.63;;;1.60;;
19951;SDS011;10137;49.406;19.484;2023-03-26T11:58:31;2.97;;;1.70;;
19951;SDS011;10137;49.406;19.484;2023-03-26T12:01:11;4.27;;;1.47;;
19951;SDS011;10137;49.406;19.484;2023-03-26T12:03:41;2.63;;;1.17;;
19951;SDS011;10137;49.406;19.484;2023-03-26T12:06:20;3.13;;;1.30;;
19951;SDS011;10137;49.406;19.484;2023-03-26T12:08:52;2.17;;;1.27;;
19951;SDS011;10137;49.406;19.484;2023-03-26T12:11:21;2.43;;;1.00;;
19951;SDS011;10137;49.406;19.484;2023-03-26T12:13:54;2.93;;;1.27;;
19951;SDS011;10137;49.406;19.484;2023-03-26T12:16:26;6.27;;;1.93;;
19951;SDS011;10137;49.406;19.484;2023-03-26T12:18:58;2.63;;;1.57;;
19951;SDS011;10137;49.406;19.484;2023-03-26T12:21:29;0.97;;;0.60;;
19951;SDS011;10137;49.406;19.484;2023-03-26T12:24:13;1.47;;;0.90;;
19951;SDS011;10137;49.406;19.484;2023-03-26T12:26:55;4.30;;;1.10;;
19951;SDS011;10137;49.406;19.484;2023-03-26T12:29:28;15.33;;;6.10;;
19951;SDS011;10137;49.406;19.484;2023-03-26T12:32:03;5.53;;;2.13;;
19951;SDS011;10137;49.406;19.484;2023-03-26T12:34:33;7.60;;;3.90;;
19951;SDS011;10137;49.406;19.484;2023-03-26T12:37:05;2.63;;;1.50;;
19951;SDS011;10137;49.406;19.484;2023-03-26T12:39:37;2.70;;;1.80;;
19951;SDS011;10137;49.406;19.484;2023-03-26T12:42:14;2.27;;;1.40;;
19951;SDS011;10137;49.406;19.484;2023-03-26T12:44:52;1.27;;;0.80;;
19951;SDS011;10137;49.406;19.484;2023-03-26T12:47:24;1.23;;;0.80;;
19951;SDS011;10137;49.406;19.484;2023-03-26T12:49:54;3.30;;;0.80;;
19951;SDS011;10137;49.406;19.484;2023-03-26T12:52:33;1.60;;;1.10;;
19951;SDS011;10137;49.406;19.484;2023-03-26T12:55:37;3.53;;;1.50;;
19951;SDS011;10137;49.406;19.484;2023-03-26T12:58:13;1.70;;;1.10;;
19951;SDS011;10137;49.406;19.484;2023-03-26T13:01:05;1.13;;;1.00;;
19951;SDS011;10137;49.406;19.484;2023-03-26T13:03:49;4.20;;;1.00;;
19951;SDS011;10137;49.406;19.484;2023-03-26T13:06:39;2.10;;;1.00;;
19951;SDS011;10137;49.406;19.484;2023-03-26T13:09:26;1.90;;;0.93;;
19951;SDS011;10137;49.406;19.484;2023-03-26T13:12:07;1.83;;;1.10;;
19951;SDS011;10137;49.406;19.484;2023-03-26T13:17:43;4.03;;;1.20;;
19951;SDS011;10137;49.406;19.484;2023-03-26T13:20:18;4.17;;;1.10;;
19951;SDS011;10137;49.406;19.484;2023-03-26T13:22:56;5.10;;;1.27;;
19951;SDS011;10137;49.406;19.484;2023-03-26T13:25:34;1.63;;;1.00;;
19951;SDS011;10137;49.406;19.484;2023-03-26T13:28:12;3.67;;;0.90;;
19951;SDS011;10137;49.406;19.484;2023-03-26T13:30:48;4.53;;;1.40;;
19951;SDS011;10137;49.406;19.484;2023-03-26T13:33:27;3.07;;;1.00;;
19951;SDS011;10137;49.406;19.484;2023-03-26T13:36:06;1.63;;;0.83;;
19951;SDS011;10137;49.406;19.484;2023-03-26T13:38:41;0.87;;;0.70;;
19951;SDS011;10137;49.406;19.484;2023-03-26T13:41:22;1.77;;;0.77;;
19951;SDS011;10137;49.406;19.484;2023-03-26T13:44:01;3.70;;;1.10;;
19951;SDS011;10137;49.406;19.484;2023-03-26T13:46:38;1.23;;;0.87;;
19951;SDS011;10137;49.406;19.484;2023-03-26T13:49:10;3.30;;;1.10;;
19951;SDS011;10137;49.406;19.484;2023-03-26T13:51:41;2.13;;;0.90;;
19951;SDS011;10137;49.406;19.484;2023-03-26T13:54:15;5.63;;;2.20;;
19951;SDS011;10137;49.406;19.484;2023-03-26T13:56:48;2.80;;;1.00;;
19951;SDS011;10137;49.406;19.484;2023-03-26T13:59:21;4.57;;;1.30;;
19951;SDS011;10137;49.406;19.484;2023-03-26T14:01:58;2.73;;;1.30;;
19951;SDS011;10137;49.406;19.484;2023-03-26T14:04:32;1.90;;;1.10;;
19951;SDS011;10137;49.406;19.484;2023-03-26T14:07:03;4.57;;;1.30;;
19951;SDS011;10137;49.406;19.484;2023-03-26T14:09:37;2.13;;;0.93;;
19951;SDS011;10137;49.406;19.484;2023-03-26T14:15:13;3.97;;;1.33;;
19951;SDS011;10137;49.406;19.484;2023-03-26T14:17:47;2.00;;;1.00;;
19951;SDS011;10137;49.406;19.484;2023-03-26T14:23:31;1.67;;;0.93;;
19951;SDS011;10137;49.406;19.484;2023-03-26T14:26:15;2.50;;;1.10;;
19951;SDS011;10137;49.406;19.484;2023-03-26T14:31:44;2.27;;;0.90;;
19951;SDS011;10137;49.406;19.484;2023-03-26T14:34:27;5.40;;;1.30;;
19951;SDS011;10137;49.406;19.484;2023-03-26T14:37:18;6.57;;;1.20;;
19951;SDS011;10137;49.406;19.484;2023-03-26T14:42:52;2.03;;;1.10;;
19951;SDS011;10137;49.406;19.484;2023-03-26T14:48:40;3.07;;;1.27;;
19951;SDS011;10137;49.406;19.484;2023-03-26T14:51:30;3.33;;;1.00;;
19951;SDS011;10137;49.406;19.484;2023-03-26T14:54:09;3.13;;;1.30;;
19951;SDS011;10137;49.406;19.484;2023-03-26T14:56:48;3.43;;;0.90;;
19951;SDS011;10137;49.406;19.484;2023-03-26T15:02:46;3.00;;;1.10;;
19951;SDS011;10137;49.406;19.484;2023-03-26T15:11:50;2.47;;;1.10;;
19951;SDS011;10137;49.406;19.484;2023-03-26T15:14:42;4.70;;;0.93;;
19951;SDS011;10137;49.406;19.484;2023-03-26T15:21:12;3.67;;;1.00;;
19951;SDS011;10137;49.406;19.484;2023-03-26T15:27:37;1.10;;;0.70;;
19951;SDS011;10137;49.406;19.484;2023-03-26T15:30:28;1.87;;;1.10;;
19951;SDS011;10137;49.406;19.484;2023-03-26T15:39:45;3.50;;;1.20;;
19951;SDS011;10137;49.406;19.484;2023-03-26T15:42:52;3.40;;;1.80;;
19951;SDS011;10137;49.406;19.484;2023-03-26T15:45:31;6.63;;;1.93;;
19951;SDS011;10137;49.406;19.484;2023-03-26T15:48:16;4.60;;;1.50;;
19951;SDS011;10137;49.406;19.484;2023-03-26T15:50:58;1.70;;;1.10;;
19951;SDS011;10137;49.406;19.484;2023-03-26T15:53:42;3.07;;;1.00;;
19951;SDS011;10137;49.406;19.484;2023-03-26T15:56:21;2.83;;;1.30;;
19951;SDS011;10137;49.406;19.484;2023-03-26T15:59:00;5.20;;;0.93;;
19951;SDS011;10137;49.406;19.484;2023-03-26T16:01:41;1.73;;;0.80;;
19951;SDS011;10137;49.406;19.484;2023-03-26T16:04:17;1.97;;;1.00;;
19951;SDS011;10137;49.406;19.484;2023-03-26T16:06:56;5.73;;;1.20;;
19951;SDS011;10137;49.406;19.484;2023-03-26T16:09:34;3.37;;;1.20;;
19951;SDS011;10137;49.406;19.484;2023-03-26T16:12:30;3.20;;;1.70;;
19951;SDS011;10137;49.406;19.484;2023-03-26T16:21:00;3.13;;;1.30;;
19951;SDS011;10137;49.406;19.484;2023-03-26T16:23:51;1.73;;;1.07;;
19951;SDS011;10137;49.406;19.484;2023-03-26T16:26:22;2.43;;;1.03;;
19951;SDS011;10137;49.406;19.484;2023-03-26T16:29:04;4.17;;;1.40;;
19951;SDS011;10137;49.406;19.484;2023-03-26T16:31:55;5.13;;;1.90;;
19951;SDS011;10137;49.406;19.484;2023-03-26T16:34:27;3.53;;;2.10;;
19951;SDS011;10137;49.406;19.484;2023-03-26T16:37:04;6.93;;;3.07;;
19951;SDS011;10137;49.406;19.484;2023-03-26T16:42:55;8.03;;;4.20;;
19951;SDS011;10137;49.406;19.484;2023-03-26T16:45:32;9.17;;;4.37;;
19951;SDS011;10137;49.406;19.484;2023-03-26T16:48:09;9.20;;;4.37;;
19951;SDS011;10137;49.406;19.484;2023-03-26T16:50:48;10.23;;;5.10;;
19951;SDS011;10137;49.406;19.484;2023-03-26T16:53:26;11.27;;;5.70;;
19951;SDS011;10137;49.406;19.484;2023-03-26T16:56:11;16.37;;;7.07;;
19951;SDS011;10137;49.406;19.484;2023-03-26T16:58:47;14.90;;;7.50;;
19951;SDS011;10137;49.406;19.484;2023-03-26T17:01:30;14.63;;;8.17;;
19951;SDS011;10137;49.406;19.484;2023-03-26T17:04:02;18.23;;;9.10;;
19951;SDS011;10137;49.406;19.484;2023-03-26T17:09:27;16.47;;;8.33;;